Time;durP1;ratioP1;P1;durP2;ratioP2;P2;SDS_P1;SDS_P2;PMS_P1;PMS_P2;Temp;Humidity;BMP_temperature;BMP_pressure;BME280_temperature;BME280_humidity;BME280_pressure;Samples;Min_cycle;Max_cycle;Signal;HPM_P1;HPM_P2
2022/06/21 00:00:23;;;;;;;8.27;3.60;;;13.40;1.00;;;;;;5067811;28;20852;-75
2022/06/21 00:03:01;;;;;;;8.90;3.47;;;13.40;1.00;;;;;;5067288;28;20426;-77
2022/06/21 00:05:34;;;;;;;7.37;3.23;;;13.30;1.00;;;;;;5073215;28;20519;-76
2022/06/21 00:08:02;;;;;;;8.50;3.30;;;13.30;1.00;;;;;;5069506;28;20518;-76
2022/06/21 00:10:34;;;;;;;9.37;4.23;;;13.30;1.00;;;;;;5071706;28;20442;-75
2022/06/21 00:13:01;;;;;;;9.03;3.90;;;13.30;1.00;;;;;;5072122;28;20479;-76
2022/06/21 00:15:32;;;;;;;6.93;3.23;;;13.20;1.00;;;;;;5070315;28;20474;-76
2022/06/21 00:17:58;;;;;;;7.03;3.60;;;13.20;1.00;;;;;;5074057;28;20456;-75
2022/06/21 00:20:32;;;;;;;7.80;3.30;;;13.20;1.00;;;;;;5057318;28;20413;-76
2022/06/21 00:23:00;;;;;;;9.37;4.30;;;13.20;1.00;;;;;;5061963;28;20470;-76
2022/06/21 00:25:30;;;;;;;9.90;4.00;;;13.20;1.00;;;;;;5052513;28;20471;-76
2022/06/21 00:27:57;;;;;;;10.77;4.43;;;13.20;1.00;;;;;;5056324;28;20495;-76
2022/06/21 00:30:31;;;;;;;8.27;3.70;;;13.20;1.00;;;;;;5065732;28;21206;-76
2022/06/21 00:32:58;;;;;;;8.00;4.37;;;13.20;1.00;;;;;;5070559;28;20467;-77
2022/06/21 00:35:30;;;;;;;9.60;4.47;;;13.20;1.00;;;;;;5067356;28;20487;-77
2022/06/21 00:37:56;;;;;;;10.13;4.60;;;13.30;1.00;;;;;;5064122;28;20514;-77
2022/06/21 00:40:29;;;;;;;8.30;4.43;;;13.30;1.00;;;;;;5062723;28;20563;-76
2022/06/21 00:43:01;;;;;;;8.63;4.00;;;13.30;1.00;;;;;;5067160;28;20462;-76
2022/06/21 00:45:35;;;;;;;9.60;4.60;;;13.30;1.00;;;;;;5075540;28;20451;-76
2022/06/21 00:48:12;;;;;;;8.70;3.87;;;13.20;1.00;;;;;;5080923;28;20467;-75
2022/06/21 00:50:48;;;;;;;10.00;4.70;;;13.20;1.00;;;;;;5064330;28;20458;-77
2022/06/21 00:53:19;;;;;;;11.57;4.67;;;13.20;1.00;;;;;;5049958;28;20465;-76
2022/06/21 00:55:55;;;;;;;10.13;5.33;;;13.20;1.00;;;;;;5066967;28;20443;-77
2022/06/21 00:58:30;;;;;;;8.63;4.07;;;13.10;1.00;;;;;;5063163;28;20451;-76
2022/06/21 01:03:49;;;;;;;7.50;4.10;;;13.10;1.00;;;;;;6155327;22;20843;-77
2022/06/21 01:06:28;;;;;;;8.03;4.20;;;13.10;1.00;;;;;;5008236;28;20472;-77
2022/06/21 01:09:04;;;;;;;8.60;4.50;;;13.10;1.00;;;;;;5027504;28;20422;-75
2022/06/21 01:11:42;;;;;;;8.83;4.27;;;13.10;1.00;;;;;;5028584;28;20422;-75
2022/06/21 01:14:10;;;;;;;7.67;4.40;;;13.10;1.00;;;;;;5034512;28;20507;-77
2022/06/21 01:16:40;;;;;;;7.53;4.40;;;13.10;1.00;;;;;;5027848;28;20451;-76
2022/06/21 01:19:18;;;;;;;8.73;4.40;;;13.00;1.00;;;;;;5023618;28;20464;-75
2022/06/21 01:21:51;;;;;;;8.40;4.57;;;13.00;1.00;;;;;;5029489;28;20464;-76
2022/06/21 01:24:30;;;;;;;9.77;4.73;;;13.00;1.00;;;;;;5018861;28;20431;-77
2022/06/21 01:27:01;;;;;;;8.20;4.83;;;12.90;1.00;;;;;;5022102;28;20444;-76
2022/06/21 01:29:31;;;;;;;12.03;5.63;;;12.90;1.00;;;;;;5019278;28;20613;-76
2022/06/21 01:32:00;;;;;;;9.03;4.47;;;12.90;1.00;;;;;;5022465;28;20651;-76
2022/06/21 01:34:29;;;;;;;8.53;4.60;;;12.90;1.00;;;;;;5002120;28;20895;-76
2022/06/21 01:37:01;;;;;;;9.63;5.53;;;12.90;1.00;;;;;;5022687;28;20472;-76
2022/06/21 01:39:34;;;;;;;8.60;5.03;;;12.80;1.00;;;;;;5018056;28;20436;-77
2022/06/21 01:42:07;;;;;;;8.70;4.77;;;12.80;1.00;;;;;;5021953;28;20438;-75
2022/06/21 01:44:38;;;;;;;8.70;4.90;;;12.80;1.00;;;;;;5023816;28;20432;-75
2022/06/21 01:47:13;;;;;;;9.33;4.90;;;12.80;1.00;;;;;;5015701;28;20478;-76
2022/06/21 01:49:46;;;;;;;11.50;5.23;;;12.80;1.00;;;;;;5018389;28;20448;-77
2022/06/21 01:52:17;;;;;;;7.90;4.30;;;12.80;1.00;;;;;;5019861;28;20434;-75
2022/06/21 01:54:50;;;;;;;9.73;4.90;;;12.80;1.00;;;;;;5017606;28;20463;-76
2022/06/21 01:57:18;;;;;;;11.73;6.00;;;12.80;1.00;;;;;;5020686;28;20465;-76
2022/06/21 01:59:49;;;;;;;8.50;4.73;;;12.80;1.00;;;;;;5007074;28;20458;-74
2022/06/21 02:02:21;;;;;;;10.10;5.23;;;12.90;1.00;;;;;;5016455;28;20465;-75
2022/06/21 02:04:54;;;;;;;11.83;5.37;;;12.90;1.00;;;;;;5035698;28;20447;-76
2022/06/21 02:07:25;;;;;;;8.40;4.53;;;13.00;1.00;;;;;;5059023;28;20491;-76
2022/06/21 02:09:59;;;;;;;9.30;4.70;;;12.90;1.00;;;;;;5067618;28;20468;-76
2022/06/21 02:12:32;;;;;;;9.17;4.87;;;12.90;1.00;;;;;;5059243;28;20545;-76
2022/06/21 02:15:02;;;;;;;8.30;4.60;;;12.90;1.00;;;;;;5038967;28;21361;-75
2022/06/21 02:17:34;;;;;;;8.40;4.50;;;12.90;1.00;;;;;;5041396;28;20658;-75
2022/06/21 02:20:05;;;;;;;10.23;4.70;;;12.90;1.00;;;;;;5058439;28;20467;-76
2022/06/21 02:22:33;;;;;;;8.33;4.60;;;12.90;1.00;;;;;;5044100;28;20470;-76
2022/06/21 02:25:01;;;;;;;10.90;5.27;;;12.90;1.00;;;;;;5040210;28;20462;-76
2022/06/21 02:27:33;;;;;;;10.93;4.90;;;12.80;1.00;;;;;;5033377;28;22176;-77
2022/06/21 02:30:03;;;;;;;9.13;4.73;;;12.80;1.00;;;;;;5043106;28;20456;-76
2022/06/21 02:32:35;;;;;;;8.67;4.97;;;12.80;1.00;;;;;;5050942;28;21431;-76
2022/06/21 02:35:07;;;;;;;9.87;4.60;;;12.80;1.00;;;;;;5046921;28;20485;-76
2022/06/21 02:37:35;;;;;;;16.63;5.77;;;12.70;1.00;;;;;;5041622;28;22383;-76
2022/06/21 02:40:06;;;;;;;9.50;4.83;;;12.70;1.00;;;;;;5037366;28;20464;-75
2022/06/21 02:42:38;;;;;;;9.10;4.47;;;12.80;1.00;;;;;;5048630;28;20464;-76
2022/06/21 02:45:18;;;;;;;10.83;5.40;;;12.80;1.00;;;;;;5039332;28;20472;-76
2022/06/21 02:47:46;;;;;;;9.00;5.03;;;12.70;1.00;;;;;;5035193;28;20476;-76
2022/06/21 02:50:26;;;;;;;9.90;4.93;;;12.70;1.00;;;;;;5049722;28;22950;-76
2022/06/21 02:52:55;;;;;;;12.10;5.00;;;12.70;1.00;;;;;;5051129;28;21335;-76
2022/06/21 02:55:38;;;;;;;8.73;5.10;;;12.70;1.00;;;;;;5045262;28;20453;-76
2022/06/21 02:58:13;;;;;;;9.07;5.60;;;12.70;1.00;;;;;;5048631;28;20481;-76
2022/06/21 03:00:42;;;;;;;11.30;5.80;;;12.70;1.00;;;;;;5054258;28;20494;-75
2022/06/21 03:03:15;;;;;;;9.10;5.30;;;12.70;1.00;;;;;;5053240;28;20468;-75
2022/06/21 03:05:42;;;;;;;9.57;4.60;;;12.70;1.00;;;;;;5046533;28;21288;-76
2022/06/21 03:08:10;;;;;;;10.30;5.60;;;12.70;1.00;;;;;;5054610;28;20483;-76
2022/06/21 03:10:43;;;;;;;12.57;5.80;;;12.60;1.00;;;;;;5048979;28;20445;-74
2022/06/21 03:13:24;;;;;;;10.50;5.47;;;12.60;1.00;;;;;;5053761;28;20483;-76
2022/06/21 03:16:01;;;;;;;12.17;6.20;;;12.60;1.00;;;;;;5053587;28;20469;-77
2022/06/21 03:18:31;;;;;;;9.83;5.40;;;12.60;1.00;;;;;;5055227;28;20890;-76
2022/06/21 03:21:05;;;;;;;11.90;6.57;;;12.60;1.00;;;;;;5058582;28;20583;-76
2022/06/21 03:23:33;;;;;;;10.10;4.67;;;12.60;1.00;;;;;;5054448;28;20544;-76
2022/06/21 03:26:04;;;;;;;8.43;4.50;;;12.60;1.00;;;;;;5052560;28;20426;-75
2022/06/21 03:28:39;;;;;;;12.90;5.17;;;12.60;1.00;;;;;;5045609;28;20471;-76
2022/06/21 03:31:13;;;;;;;11.90;5.40;;;12.60;1.00;;;;;;5045223;28;21306;-75
2022/06/21 03:33:43;;;;;;;10.33;5.80;;;12.60;1.00;;;;;;5063818;28;20424;-76
2022/06/21 03:36:15;;;;;;;9.33;6.10;;;12.70;1.00;;;;;;5049731;28;20476;-76
2022/06/21 03:38:49;;;;;;;10.30;5.20;;;12.70;1.00;;;;;;5052118;28;21030;-76
2022/06/21 03:44:15;;;;;;;13.23;6.33;;;12.80;1.00;;;;;;5051567;28;20468;-76
2022/06/21 03:46:48;;;;;;;12.43;6.00;;;12.70;1.00;;;;;;5055342;28;20594;-76
2022/06/21 03:49:25;;;;;;;10.30;5.73;;;12.70;1.00;;;;;;5053829;28;20549;-74
2022/06/21 03:52:00;;;;;;;9.03;5.10;;;12.70;1.00;;;;;;5055238;28;20496;-74
2022/06/21 03:54:32;;;;;;;10.60;6.20;;;12.70;1.00;;;;;;5047029;28;20524;-75
2022/06/21 03:57:07;;;;;;;10.63;5.70;;;12.70;1.00;;;;;;5059085;28;20392;-76
2022/06/21 03:59:44;;;;;;;14.13;6.67;;;12.80;1.00;;;;;;5059572;28;21352;-76
2022/06/21 04:02:20;;;;;;;14.93;6.77;;;12.80;1.00;;;;;;5051235;28;20477;-75
2022/06/21 04:04:52;;;;;;;9.00;5.97;;;12.90;1.00;;;;;;5050223;28;20459;-76
2022/06/21 04:07:28;;;;;;;13.33;6.60;;;12.90;1.00;;;;;;5055133;28;20408;-75
2022/06/21 04:10:02;;;;;;;13.07;6.37;;;12.90;1.00;;;;;;5051058;28;20943;-76
2022/06/21 04:12:33;;;;;;;11.50;6.57;;;12.90;1.00;;;;;;5063372;28;20809;-77
2022/06/21 04:15:08;;;;;;;11.80;5.67;;;12.90;1.00;;;;;;5061244;28;20439;-76
2022/06/21 04:17:44;;;;;;;9.27;5.13;;;12.90;1.00;;;;;;5048887;28;20561;-77
2022/06/21 04:20:23;;;;;;;9.77;5.30;;;12.90;1.00;;;;;;5048709;28;20813;-77
2022/06/21 04:23:00;;;;;;;10.33;6.00;;;12.90;1.00;;;;;;5064427;28;20456;-78
2022/06/21 04:25:32;;;;;;;12.60;6.87;;;13.00;1.00;;;;;;5059230;28;20452;-76
2022/06/21 04:28:09;;;;;;;10.43;5.63;;;13.00;1.00;;;;;;5056530;28;20393;-77
2022/06/21 04:30:47;;;;;;;10.83;6.20;;;13.10;1.00;;;;;;5056954;28;20473;-77
2022/06/21 04:33:24;;;;;;;13.73;6.50;;;13.10;1.00;;;;;;5043474;28;20497;-78
2022/06/21 04:36:00;;;;;;;12.00;5.97;;;13.20;1.00;;;;;;5056089;28;20474;-75
2022/06/21 04:38:32;;;;;;;10.37;5.17;;;13.30;1.00;;;;;;5053622;28;20539;-78
2022/06/21 04:41:06;;;;;;;14.60;6.53;;;13.40;1.00;;;;;;5037724;28;20511;-75
2022/06/21 04:43:42;;;;;;;9.60;6.03;;;13.50;1.00;;;;;;5046506;28;20958;-75
2022/06/21 04:46:20;;;;;;;11.27;6.43;;;13.50;1.00;;;;;;5041441;28;20460;-75
2022/06/21 04:48:52;;;;;;;10.73;6.63;;;13.60;1.00;;;;;;5045279;28;20454;-76
2022/06/21 04:51:26;;;;;;;9.23;6.00;;;13.70;1.00;;;;;;5049234;28;20455;-77
2022/06/21 04:54:01;;;;;;;11.20;6.53;;;13.80;1.00;;;;;;5034618;28;21028;-77
2022/06/21 04:56:40;;;;;;;9.40;6.60;;;13.90;1.00;;;;;;5041065;28;20451;-78
2022/06/21 04:59:19;;;;;;;10.33;6.27;;;13.90;1.00;;;;;;5066331;28;20459;-76
2022/06/21 05:01:47;;;;;;;10.87;6.80;;;13.90;1.00;;;;;;5063209;28;20956;-74
2022/06/21 05:04:23;;;;;;;12.40;6.70;;;13.90;1.00;;;;;;5069969;28;20472;-77
2022/06/21 05:06:53;;;;;;;11.30;5.97;;;13.90;1.00;;;;;;5049783;28;20962;-75
2022/06/21 05:09:24;;;;;;;11.70;6.20;;;14.00;1.00;;;;;;5063921;28;20419;-77
2022/06/21 05:12:04;;;;;;;13.50;6.90;;;14.00;1.00;;;;;;5057418;28;20459;-78
2022/06/21 05:14:40;;;;;;;12.93;6.30;;;14.10;1.00;;;;;;5052741;28;20448;-78
2022/06/21 05:17:17;;;;;;;11.77;6.20;;;14.20;1.00;;;;;;5061246;28;20476;-76
2022/06/21 05:19:48;;;;;;;14.50;6.50;;;14.40;1.00;;;;;;5068543;28;20459;-77
2022/06/21 05:22:22;;;;;;;14.13;6.40;;;14.40;1.00;;;;;;5052888;28;21034;-75
2022/06/21 05:24:49;;;;;;;10.07;5.33;;;14.50;1.00;;;;;;5053058;28;20450;-74
2022/06/21 05:27:25;;;;;;;10.30;5.23;;;14.60;1.00;;;;;;5056283;28;20495;-76
2022/06/21 05:30:03;;;;;;;11.90;5.70;;;14.60;1.00;;;;;;5057286;28;20464;-77
2022/06/21 05:32:40;;;;;;;12.00;5.60;;;14.70;1.00;;;;;;5074844;28;20468;-78
2022/06/21 05:35:12;;;;;;;12.80;5.93;;;14.90;1.00;;;;;;5055531;28;20908;-76
2022/06/21 05:37:50;;;;;;;10.90;6.00;;;14.90;1.00;;;;;;5043794;28;20424;-76
2022/06/21 05:40:30;;;;;;;9.93;5.00;;;14.90;1.00;;;;;;5055390;28;20431;-76
2022/06/21 05:43:01;;;;;;;11.93;5.40;;;14.70;1.00;;;;;;5054227;28;20480;-78
2022/06/21 05:45:35;;;;;;;13.70;5.20;;;14.60;1.00;;;;;;5055805;28;20475;-76
2022/06/21 05:48:09;;;;;;;8.70;4.50;;;14.50;1.00;;;;;;5059551;28;20428;-75
2022/06/21 05:50:40;;;;;;;10.07;5.57;;;14.40;1.00;;;;;;5063996;28;20540;-76
2022/06/21 05:53:13;;;;;;;11.17;5.60;;;14.40;1.00;;;;;;5054905;28;20505;-78
2022/06/21 05:55:45;;;;;;;11.07;5.40;;;14.40;1.00;;;;;;5054453;28;20920;-77
2022/06/21 05:58:21;;;;;;;9.60;4.67;;;14.60;1.00;;;;;;5052481;28;20646;-77
2022/06/21 06:00:53;;;;;;;16.93;9.50;;;14.60;1.00;;;;;;5062521;28;20480;-76
2022/06/21 06:03:28;;;;;;;11.50;4.97;;;14.60;1.00;;;;;;5053559;28;20471;-77
2022/06/21 06:05:57;;;;;;;10.87;4.57;;;14.50;1.00;;;;;;5043835;28;21166;-76
2022/06/21 06:08:30;;;;;;;11.10;5.00;;;14.60;1.00;;;;;;5036569;28;20429;-77
2022/06/21 06:11:00;;;;;;;9.20;5.30;;;14.70;1.00;;;;;;5049124;28;20463;-76
2022/06/21 06:13:31;;;;;;;11.17;5.07;;;14.80;1.00;;;;;;5052303;28;20563;-77
2022/06/21 06:16:03;;;;;;;11.40;4.80;;;14.90;1.00;;;;;;5051100;28;20579;-77
2022/06/21 06:18:40;;;;;;;11.30;5.00;;;15.00;1.00;;;;;;5055356;28;20504;-78
2022/06/21 06:21:16;;;;;;;10.27;5.00;;;14.90;1.00;;;;;;5052139;28;20479;-77
2022/06/21 06:23:48;;;;;;;9.97;4.60;;;15.00;1.00;;;;;;5055485;28;20594;-78
2022/06/21 06:26:20;;;;;;;11.70;4.97;;;15.00;1.00;;;;;;5042344;28;20480;-77
2022/06/21 06:28:52;;;;;;;10.17;4.80;;;15.00;1.00;;;;;;5051356;28;21187;-79
2022/06/21 06:31:22;;;;;;;11.37;4.97;;;15.10;1.00;;;;;;5051892;28;20556;-78
2022/06/21 06:33:55;;;;;;;13.83;5.10;;;15.10;1.00;;;;;;5044067;28;20469;-77
2022/06/21 06:36:28;;;;;;;9.00;4.70;;;15.30;1.00;;;;;;5058880;28;20539;-77
2022/06/21 06:38:57;;;;;;;10.10;4.43;;;15.30;1.00;;;;;;5052191;28;20608;-78
2022/06/21 06:41:30;;;;;;;9.87;4.80;;;15.40;1.00;;;;;;5048250;28;20475;-77
2022/06/21 06:44:02;;;;;;;8.87;3.57;;;15.50;1.00;;;;;;5054677;28;20513;-77
2022/06/21 06:46:32;;;;;;;9.70;4.50;;;15.50;1.00;;;;;;5053749;28;20542;-78
2022/06/21 06:49:12;;;;;;;11.27;3.97;;;15.60;1.00;;;;;;5033884;28;20455;-77
2022/06/21 06:51:46;;;;;;;8.60;4.10;;;15.60;1.00;;;;;;5059431;28;20953;-77
2022/06/21 06:54:20;;;;;;;8.40;3.70;;;15.70;1.00;;;;;;5052675;28;20587;-76
2022/06/21 06:56:58;;;;;;;9.73;4.00;;;15.80;1.00;;;;;;5040498;28;20482;-76
2022/06/21 06:59:26;;;;;;;7.80;3.63;;;15.80;1.00;;;;;;5049888;28;20456;-76
2022/06/21 07:01:58;;;;;;;10.33;3.80;;;15.90;1.00;;;;;;5057789;28;20527;-76
2022/06/21 07:04:29;;;;;;;14.90;4.70;;;16.00;1.00;;;;;;5055856;28;20476;-79
2022/06/21 07:07:02;;;;;;;8.47;3.30;;;16.00;1.00;;;;;;5061861;28;20456;-78
2022/06/21 07:09:31;;;;;;;9.00;3.63;;;16.10;1.00;;;;;;5049087;28;20463;-78
2022/06/21 07:12:05;;;;;;;10.10;3.67;;;16.30;1.00;;;;;;5056269;28;20517;-76
2022/06/21 07:14:33;;;;;;;11.90;3.83;;;16.40;1.00;;;;;;5061526;28;20455;-77
2022/06/21 07:17:06;;;;;;;10.10;3.43;;;16.40;1.00;;;;;;5036299;28;20472;-75
2022/06/21 07:19:37;;;;;;;11.00;3.80;;;16.40;1.00;;;;;;5068181;28;21346;-76
2022/06/21 07:22:13;;;;;;;10.50;3.10;;;16.50;1.00;;;;;;5056783;28;22073;-77
2022/06/21 07:24:42;;;;;;;10.17;3.80;;;16.70;1.00;;;;;;5054249;28;20479;-76
2022/06/21 07:27:15;;;;;;;9.67;3.27;;;16.80;1.00;;;;;;5067103;28;20460;-76
2022/06/21 07:29:51;;;;;;;7.37;2.90;;;17.00;1.00;;;;;;5055782;28;20936;-77
2022/06/21 07:32:22;;;;;;;9.67;2.63;;;17.10;1.00;;;;;;5053685;28;20557;-75
2022/06/21 07:34:57;;;;;;;8.17;3.23;;;17.10;1.00;;;;;;5059166;28;20926;-76
2022/06/21 07:37:28;;;;;;;6.17;2.63;;;17.20;1.00;;;;;;5061095;28;20463;-77
2022/06/21 07:40:00;;;;;;;7.73;2.47;;;17.20;1.00;;;;;;5047498;28;20962;-76
2022/06/21 07:42:32;;;;;;;9.17;3.50;;;17.10;1.00;;;;;;5056288;28;20511;-77
2022/06/21 07:45:07;;;;;;;9.83;3.93;;;17.20;1.00;;;;;;5051021;28;20478;-76
2022/06/21 07:47:40;;;;;;;9.30;3.27;;;17.30;1.00;;;;;;5060777;28;20474;-75
2022/06/21 07:50:13;;;;;;;8.20;3.07;;;17.40;1.00;;;;;;5064447;28;20465;-77
2022/06/21 07:52:49;;;;;;;9.30;3.30;;;17.50;1.00;;;;;;5070236;28;20452;-76
2022/06/21 07:55:22;;;;;;;6.80;2.63;;;17.50;1.00;;;;;;5063533;28;20574;-77
2022/06/21 07:57:56;;;;;;;8.27;3.20;;;17.50;1.00;;;;;;5060959;28;20446;-76
2022/06/21 08:06:40;;;;;;;7.70;2.70;;;17.60;1.00;;;;;;5063480;28;20462;-78
2022/06/21 08:09:30;;;;;;;7.00;2.33;;;18.00;1.00;;;;;;5066589;28;20548;-76
2022/06/21 08:12:00;;;;;;;6.97;2.40;;;18.20;1.00;;;;;;5057010;28;20468;-77
2022/06/21 08:14:32;;;;;;;6.87;2.13;;;18.30;1.00;;;;;;5066599;28;20536;-75
2022/06/21 08:17:07;;;;;;;9.13;2.47;;;18.50;1.00;;;;;;5061805;28;20467;-78
2022/06/21 08:19:42;;;;;;;7.17;2.30;;;18.60;1.00;;;;;;5062117;28;20462;-75
2022/06/21 08:22:14;;;;;;;8.17;2.60;;;18.70;1.00;;;;;;5064264;28;20466;-76
2022/06/21 08:24:53;;;;;;;8.00;2.20;;;18.80;1.00;;;;;;5055208;28;20842;-76
2022/06/21 08:27:30;;;;;;;8.50;2.20;;;18.90;1.00;;;;;;5049511;28;20838;-77
2022/06/21 08:30:02;;;;;;;7.90;2.00;;;19.10;1.00;;;;;;5050261;28;20461;-76
2022/06/21 08:32:33;;;;;;;7.67;1.90;;;19.20;1.00;;;;;;5045833;28;20464;-76
2022/06/21 08:35:09;;;;;;;8.83;2.07;;;19.20;1.00;;;;;;5048727;28;20465;-74
2022/06/21 08:37:44;;;;;;;8.23;2.80;;;19.20;1.00;;;;;;5047545;28;20531;-76
2022/06/21 08:40:40;;;;;;;7.00;2.20;;;19.30;1.00;;;;;;5047910;28;21383;-76
2022/06/21 08:43:27;;;;;;;7.30;1.97;;;19.50;1.00;;;;;;5029479;28;23047;-77
2022/06/21 08:46:17;;;;;;;7.73;2.47;;;19.60;1.00;;;;;;5038571;28;20479;-77
2022/06/21 08:49:20;;;;;;;6.80;1.90;;;19.70;1.00;;;;;;5060142;28;20570;-76
2022/06/21 08:52:13;;;;;;;7.63;2.07;;;19.80;1.00;;;;;;5047804;28;20439;-77
2022/06/21 08:54:52;;;;;;;10.77;2.90;;;20.00;1.00;;;;;;5060263;28;20452;-77
2022/06/21 08:57:26;;;;;;;9.63;2.00;;;20.10;1.00;;;;;;5044074;28;20480;-76
2022/06/21 09:00:04;;;;;;;6.70;2.10;;;20.30;1.00;;;;;;5062720;28;21040;-76
2022/06/21 09:02:44;;;;;;;7.80;1.97;;;20.30;1.00;;;;;;5055346;28;20432;-76
2022/06/21 09:05:30;;;;;;;7.00;1.80;;;20.40;1.00;;;;;;5045282;28;20459;-76
2022/06/21 09:08:12;;;;;;;9.47;3.07;;;20.50;1.00;;;;;;5041386;28;21016;-76
2022/06/21 09:11:01;;;;;;;6.40;1.90;;;20.60;1.00;;;;;;5051813;28;20557;-75
2022/06/21 09:13:43;;;;;;;6.63;2.00;;;20.80;1.00;;;;;;5050672;28;20471;-77
2022/06/21 09:16:18;;;;;;;8.30;1.87;;;20.90;1.00;;;;;;5039414;28;20496;-77
2022/06/21 09:18:59;;;;;;;8.57;2.53;;;20.90;1.00;;;;;;5036411;28;20534;-76
2022/06/21 09:21:32;;;;;;;8.30;2.00;;;20.90;1.00;;;;;;5047741;28;20463;-76
2022/06/21 09:24:04;;;;;;;7.83;2.13;;;21.00;1.00;;;;;;5049433;28;20900;-79
2022/06/21 09:26:43;;;;;;;7.40;2.40;;;21.30;1.00;;;;;;5051126;28;22531;-78
2022/06/21 09:29:25;;;;;;;8.30;1.90;;;21.40;1.00;;;;;;5027701;28;20460;-76
2022/06/21 09:32:21;;;;;;;9.87;3.87;;;21.40;1.00;;;;;;5049547;28;20467;-75
2022/06/21 09:35:02;;;;;;;7.10;2.17;;;21.60;1.00;;;;;;5042700;28;20511;-77
2022/06/21 09:37:50;;;;;;;7.20;2.40;;;21.80;1.00;;;;;;5056773;28;20499;-76
2022/06/21 09:40:24;;;;;;;7.10;2.20;;;22.00;1.00;;;;;;5051657;28;20828;-75
2022/06/21 09:42:58;;;;;;;8.10;1.97;;;22.80;1.00;;;;;;5064282;28;20927;-77
2022/06/21 09:45:32;;;;;;;7.20;2.03;;;24.50;1.00;;;;;;5053630;28;20451;-77
2022/06/21 09:48:07;;;;;;;5.80;1.53;;;26.20;1.00;;;;;;5057175;28;20490;-78
2022/06/21 09:50:47;;;;;;;7.77;1.90;;;27.50;1.00;;;;;;5050618;28;20458;-78
2022/06/21 09:53:22;;;;;;;6.83;1.67;;;28.50;1.00;;;;;;5063354;28;21241;-80
2022/06/21 09:56:12;;;;;;;8.10;2.13;;;29.20;1.00;;;;;;5078512;28;20459;-76
2022/06/21 09:58:52;;;;;;;5.37;1.50;;;30.00;1.00;;;;;;5062577;28;20548;-76
2022/06/21 10:01:25;;;;;;;8.07;2.30;;;30.70;1.00;;;;;;5058101;28;20530;-76
2022/06/21 10:04:01;;;;;;;6.30;1.70;;;31.10;1.00;;;;;;5058091;28;21070;-78
2022/06/21 10:07:08;;;;;;;7.10;1.70;;;31.50;1.00;;;;;;5067726;28;20663;-75
2022/06/21 10:09:49;;;;;;;9.33;1.83;;;32.20;1.00;;;;;;5049881;28;20511;-77
2022/06/21 10:12:34;;;;;;;8.87;1.60;;;32.60;1.00;;;;;;5040498;28;21837;-75
2022/06/21 10:15:21;;;;;;;6.93;1.30;;;32.40;1.00;;;;;;5059642;28;20561;-78
2022/06/21 10:18:11;;;;;;;5.93;1.90;;;32.50;1.00;;;;;;5067486;28;20896;-76
2022/06/21 10:20:50;;;;;;;7.43;1.83;;;32.90;1.00;;;;;;5060327;28;20471;-75
2022/06/21 10:23:38;;;;;;;6.70;1.43;;;33.50;1.00;;;;;;5065098;28;20439;-77
2022/06/21 10:26:28;;;;;;;6.70;3.37;;;33.40;1.00;;;;;;5041387;28;20474;-77
2022/06/21 10:29:20;;;;;;;6.13;1.47;;;33.50;1.00;;;;;;5047152;28;20456;-77
2022/06/21 10:32:14;;;;;;;6.00;1.70;;;33.30;1.00;;;;;;5062131;28;20518;-77
2022/06/21 10:35:10;;;;;;;11.00;2.10;;;33.80;1.00;;;;;;5058286;28;20503;-77
2022/06/21 10:37:45;;;;;;;6.90;1.77;;;33.50;1.00;;;;;;5043792;28;20476;-77
2022/06/21 10:40:35;;;;;;;6.80;1.87;;;33.80;1.00;;;;;;5042661;28;20584;-78
2022/06/21 10:43:30;;;;;;;5.60;1.63;;;34.30;1.00;;;;;;5056353;28;20464;-75
2022/06/21 10:46:00;;;;;;;6.53;2.40;;;34.60;1.00;;;;;;5058640;28;20464;-76
2022/06/21 10:49:06;;;;;;;5.40;1.33;;;34.70;1.00;;;;;;5056705;28;20476;-76
2022/06/21 10:51:48;;;;;;;4.90;1.50;;;34.60;1.00;;;;;;5057277;28;20417;-75
2022/06/21 10:54:35;;;;;;;4.87;1.43;;;34.70;1.00;;;;;;5059406;28;20479;-76
2022/06/21 10:57:13;;;;;;;4.50;1.20;;;35.40;1.00;;;;;;5061055;28;20565;-76
2022/06/21 11:03:18;;;;;;;4.60;1.23;;;36.20;1.00;;;;;;5056089;28;20606;-76
2022/06/21 11:05:56;;;;;;;5.60;1.63;;;36.50;1.00;;;;;;5043915;28;21000;-75
2022/06/21 11:08:32;;;;;;;7.20;3.53;;;36.10;1.00;;;;;;5060879;28;21067;-76
2022/06/21 11:11:07;;;;;;;4.40;1.60;;;36.20;1.00;;;;;;5056578;28;20631;-75
2022/06/21 11:13:41;;;;;;;8.43;2.10;;;36.80;1.00;;;;;;5055964;28;20907;-76
2022/06/21 11:16:14;;;;;;;6.00;1.53;;;37.60;1.00;;;;;;5050381;28;20971;-76
2022/06/21 11:18:54;;;;;;;5.50;1.50;;;38.10;1.00;;;;;;5044453;28;20456;-76
2022/06/21 11:21:40;;;;;;;5.07;2.23;;;38.60;1.00;;;;;;5050984;28;20474;-76
2022/06/21 11:24:24;;;;;;;5.10;1.50;;;38.60;1.00;;;;;;5046845;28;20595;-76
2022/06/21 11:26:58;;;;;;;5.73;1.70;;;39.10;1.00;;;;;;5051998;28;20487;-76
2022/06/21 11:29:42;;;;;;;4.50;1.67;;;39.30;1.00;;;;;;5037742;28;20446;-75
2022/06/21 11:32:21;;;;;;;4.40;1.27;;;39.60;1.00;;;;;;5043700;28;20479;-76
2022/06/21 11:35:00;;;;;;;6.73;1.60;;;40.10;1.00;;;;;;5046372;28;20553;-75
2022/06/21 11:37:40;;;;;;;4.00;1.77;;;40.30;1.00;;;;;;5055847;28;20551;-77
2022/06/21 11:40:34;;;;;;;4.13;1.33;;;40.40;1.00;;;;;;5039508;28;20481;-77
2022/06/21 11:43:19;;;;;;;4.47;2.30;;;40.50;1.00;;;;;;5054623;28;20532;-77
2022/06/21 11:45:50;;;;;;;5.20;1.30;;;40.70;1.00;;;;;;5054912;28;20532;-77
2022/06/21 11:49:03;;;;;;;5.90;1.43;;;40.60;1.00;;;;;;5050958;28;20564;-78
2022/06/21 11:51:54;;;;;;;3.90;1.20;;;40.30;1.00;;;;;;5025339;28;20466;-80
2022/06/21 11:54:27;;;;;;;4.20;1.40;;;39.90;1.00;;;;;;5052006;28;21216;-77
2022/06/21 11:57:05;;;;;;;3.70;1.40;;;40.20;1.00;;;;;;5062549;28;20458;-78
2022/06/21 11:59:39;;;;;;;4.40;1.40;;;40.30;1.00;;;;;;5050866;28;20460;-78
2022/06/21 12:02:17;;;;;;;4.33;1.70;;;40.60;1.00;;;;;;5066985;28;20593;-78
2022/06/21 12:04:54;;;;;;;5.07;2.77;;;40.80;1.00;;;;;;5050471;28;20496;-78
2022/06/21 12:07:27;;;;;;;3.73;1.47;;;40.70;1.00;;;;;;5052893;28;20864;-79
2022/06/21 12:10:16;;;;;;;5.27;1.43;;;40.90;1.00;;;;;;5046749;28;20841;-78
2022/06/21 12:12:55;;;;;;;4.70;1.23;;;41.30;1.00;;;;;;5054832;28;20535;-78
2022/06/21 12:15:49;;;;;;;3.70;1.40;;;41.60;1.00;;;;;;5045729;28;20568;-80
2022/06/21 12:18:20;;;;;;;4.30;1.40;;;41.70;1.00;;;;;;5047951;28;20603;-79
2022/06/21 12:20:51;;;;;;;4.87;1.60;;;41.60;1.00;;;;;;5062029;28;20457;-78
2022/06/21 12:23:25;;;;;;;5.03;1.67;;;41.90;1.00;;;;;;5061196;28;20464;-79
2022/06/21 12:25:54;;;;;;;3.60;1.10;;;42.00;1.00;;;;;;5052186;28;20479;-78
2022/06/21 12:28:24;;;;;;;3.10;1.30;;;41.60;1.00;;;;;;5056105;28;20555;-79
2022/06/21 12:31:07;;;;;;;3.43;1.30;;;41.30;1.00;;;;;;5059446;28;20999;-77
2022/06/21 12:33:36;;;;;;;3.47;1.13;;;41.60;1.00;;;;;;5066159;28;20842;-78
2022/06/21 12:36:22;;;;;;;4.30;1.30;;;41.30;1.00;;;;;;5064204;28;20554;-79
2022/06/21 12:38:54;;;;;;;4.07;1.30;;;41.20;1.00;;;;;;5059850;28;20995;-78
2022/06/21 12:41:27;;;;;;;3.83;1.30;;;41.00;1.00;;;;;;5067295;28;21017;-78
2022/06/21 12:44:04;;;;;;;4.57;1.47;;;40.80;1.00;;;;;;5052122;28;20455;-79
2022/06/21 12:46:40;;;;;;;4.33;1.50;;;41.20;1.00;;;;;;5057672;28;20468;-79
2022/06/21 12:49:31;;;;;;;4.23;1.13;;;41.10;1.00;;;;;;5056853;28;20447;-80
2022/06/21 12:52:01;;;;;;;5.40;1.70;;;41.30;1.00;;;;;;5045005;28;21338;-80
2022/06/21 12:54:51;;;;;;;5.03;1.77;;;41.10;1.00;;;;;;5058305;28;21229;-79
2022/06/21 12:57:45;;;;;;;3.77;1.60;;;41.00;1.00;;;;;;5060084;28;20563;-78
2022/06/21 13:00:25;;;;;;;3.83;1.40;;;41.20;1.00;;;;;;5063690;28;20482;-78
2022/06/21 13:03:29;;;;;;;5.13;1.87;;;40.80;1.00;;;;;;5058601;28;20429;-78
2022/06/21 13:06:26;;;;;;;3.30;1.40;;;40.40;1.00;;;;;;5052452;28;20884;-78
2022/06/21 13:09:29;;;;;;;5.90;2.10;;;40.30;1.00;;;;;;5026002;28;20575;-79
2022/06/21 13:12:18;;;;;;;5.13;1.40;;;40.40;1.00;;;;;;5052343;28;20496;-78
2022/06/21 13:15:17;;;;;;;4.23;1.13;;;41.10;1.00;;;;;;5070402;28;20455;-78
2022/06/21 13:18:27;;;;;;;4.20;1.30;;;41.30;1.00;;;;;;5065842;28;20462;-78
2022/06/21 13:21:07;;;;;;;3.00;1.17;;;41.50;1.00;;;;;;5057608;28;20556;-78
2022/06/21 13:23:48;;;;;;;5.03;2.73;;;41.50;1.00;;;;;;5050297;28;20476;-78
2022/06/21 13:26:30;;;;;;;3.57;1.20;;;41.30;1.00;;;;;;5045477;28;20464;-79
2022/06/21 13:29:14;;;;;;;4.00;1.00;;;41.20;1.00;;;;;;5062789;28;20472;-79
2022/06/21 13:31:48;;;;;;;6.33;2.67;;;40.90;1.00;;;;;;5053630;28;21046;-80
2022/06/21 13:34:29;;;;;;;4.53;1.40;;;41.10;1.00;;;;;;5067605;28;20559;-80
2022/06/21 13:37:04;;;;;;;3.60;1.50;;;41.10;1.00;;;;;;5056258;28;20429;-78
2022/06/21 13:39:42;;;;;;;3.77;1.70;;;39.70;1.00;;;;;;5048904;28;21224;-79
2022/06/21 13:45:08;;;;;;;4.70;1.40;;;38.20;1.00;;;;;;5058414;28;20458;-78
2022/06/21 13:47:48;;;;;;;8.80;1.67;;;37.40;1.00;;;;;;5053218;28;20533;-78
2022/06/21 13:50:23;;;;;;;6.17;1.10;;;37.70;1.00;;;;;;5060991;28;20514;-80
2022/06/21 13:53:05;;;;;;;4.93;1.23;;;37.90;1.00;;;;;;5053646;28;21777;-82
2022/06/21 13:55:41;;;;;;;3.20;1.10;;;38.70;1.00;;;;;;5067390;28;20483;-80
2022/06/21 13:58:23;;;;;;;7.50;4.03;;;38.90;1.00;;;;;;5051148;28;20495;-77